EST,Max TemperatureF,Mean TemperatureF,Min TemperatureF,Max Dew PointF,MeanDew PointF,Min DewpointF,Max Humidity, Mean Humidity, Min Humidity, Max Sea Level PressureIn, Mean Sea Level PressureIn, Min Sea Level PressureIn, Max VisibilityMiles, Mean VisibilityMiles, Min VisibilityMiles, Max Wind SpeedMPH, Mean Wind SpeedMPH, Max Gust SpeedMPH,PrecipitationIn, CloudCover, Events, WindDirDegrees
2011-11-1,51,38,24,32,26,19,93,68,38,30.32,30.28,30.24,10,10,6,14,2,23,0.00,0,,188
2011-11-2,53,38,24,36,29,19,93,68,47,30.26,30.19,30.10,10,10,10,15,3,20,0.00,0,,187
2011-11-3,57,45,33,43,35,30,93,72,48,30.05,29.86,29.72,10,10,8,15,7,18,0.01,4,,175
2011-11-4,42,36,30,32,27,21,87,70,49,30.09,29.87,29.77,10,10,3,22,9,33,0.02,5,,322
2011-11-5,39,32,26,21,19,18,80,57,42,30.31,30.25,30.11,10,10,10,21,11,26,0.00,5,,336
2011-11-6,53,37,21,23,19,16,86,56,24,30.27,30.20,30.11,10,10,10,16,5,22,0.00,0,,227
2011-11-7,59,42,24,36,26,18,80,55,29,30.11,30.01,29.92,10,10,10,16,3,22,0.00,1,,231
2011-11-8,57,48,39,37,31,27,76,53,31,30.16,30.04,29.94,10,10,10,17,8,26,0.00,1,,261
2011-11-9,48,42,37,34,32,28,81,63,50,30.21,30.14,30.04,10,10,4,8,1,,0.00,7,,83
2011-11-10,57,50,44,52,46,37,93,83,76,30.00,29.89,29.71,10,9,5,15,11,20,0.00,7,,150
2011-11-11,55,45,33,52,38,25,94,80,70,29.44,29.27,29.19,10,9,3,16,9,25,0.38,8,,299
2011-11-12,39,34,30,28,23,16,80,59,48,29.82,29.69,29.40,10,10,5,21,13,26,0.00,7,,233
2011-11-13,53,43,33,36,31,27,81,63,44,30.04,29.95,29.84,10,10,10,17,8,24,0.00,2,,171
2011-11-14,53,48,44,45,42,39,87,75,67,29.76,29.64,29.57,10,10,9,14,7,17,0.03,5,,164
2011-11-15,50,42,35,45,39,28,87,79,66,29.82,29.59,29.44,10,10,2,17,3,24,0.00,4,,238
2011-11-16,55,42,28,37,32,25,93,70,44,29.86,29.79,29.65,10,9,1,21,5,30,0.00,1,,174
2011-11-17,48,44,39,43,31,23,87,62,49,29.65,29.60,29.52,10,10,10,13,7,18,0.00,2,,264
2011-11-18,35,30,24,19,15,10,69,55,35,30.13,29.98,29.79,10,10,10,16,8,24,0.00,2,,266
2011-11-19,44,35,26,21,19,18,69,53,37,30.14,30.07,30.00,10,10,10,14,7,18,0.00,6,,193
2011-11-20,46,40,32,37,27,18,76,60,49,29.99,29.79,29.63,10,10,10,23,6,28,0.00,7,,209
2011-11-21,28,21,12,18,7,1,79,52,34,30.31,30.23,30.05,10,10,10,16,8,22,0.00,0,,329
2011-11-22,32,21,10,12,7,3,85,63,32,30.35,30.30,30.24,10,10,10,9,1,,0.00,0,,264
2011-11-23,24,20,15,19,14,10,86,75,63,30.28,30.05,29.91,10,7,1,13,4,18,0.01,5,,29
2011-11-24,30,18,6,25,15,0,92,78,64,29.99,29.94,29.91,10,10,7,9,3,,0.00,4,,213
2011-11-25,42,36,30,37,31,27,87,81,75,29.93,29.83,29.76,10,10,10,12,7,16,0.00,8,,191
2011-11-26,44,37,30,37,30,23,87,71,49,30.23,30.02,29.80,10,10,10,15,6,21,0.00,6,,313
2011-11-27,35,32,30,28,26,23,86,72,65,30.30,30.23,30.12,10,10,10,17,5,26,0.00,8,,128
2011-11-28,53,45,37,48,40,28,93,82,61,30.01,29.83,29.74,10,10,7,21,12,30,0.05,7,,210
2011-11-29,42,34,26,37,29,23,86,78,70,30.12,30.05,29.97,10,10,10,13,4,16,0.00,6,,146
2011-11-30,60,52,44,57,49,43,94,87,72,29.85,29.54,29.35,10,9,3,26,12,39,0.13,7,,166